Aurora, New York
Current Conditions -  °F | °C
As of 1:53 PM on Friday 24 Oct 2014 (Local Time) from KPEO Reporting Station
Clear Clear  
Wind Chill: 61°   Ceiling: Unl
Heat Index: 61°   Visibility: 10mi
Dew Point: 37°   Wind: 7mph
Humidity: 41%   Direction: NA
Pressure: 29.93"   Gusts: NA
Location:  42.75°N, 76.7°W
Report Text: KPEO 241753Z AUTO VRB06KT 10SM CLR 16/03 A2993 RMK AO2 SLP134 T01610028 10161 20083 58014
Loading
Personal Weather Stations






























Interactive Weather Map
Tropical Storm Tracking
New forecast layout! Learn more

10-Day Weather Forecast

Advertisements
Track Severe Weather on mobile